createdAt,value
2023-04-01T00:00:17.726Z,100.0
2023-04-01T00:05:17.695Z,100.0
2023-04-01T00:10:17.699Z,100.0
2023-04-01T00:15:17.695Z,100.0
2023-04-01T00:20:17.687Z,100.0
2023-04-01T00:25:17.700Z,100.0
2023-04-01T00:30:17.741Z,100.0
2023-04-01T00:35:17.714Z,100.0
2023-04-01T00:40:17.710Z,100.0
2023-04-01T00:45:17.733Z,100.0
2023-04-01T00:50:17.718Z,100.0
2023-04-01T00:55:17.722Z,100.0
2023-04-01T01:05:17.732Z,100.0
2023-04-01T01:10:17.744Z,100.0
2023-04-01T01:15:17.735Z,100.0
2023-04-01T01:20:25.971Z,100.0
2023-04-01T01:25:17.736Z,100.0
2023-04-01T01:30:17.744Z,100.0
2023-04-01T01:35:17.778Z,100.0
2023-04-01T01:40:17.742Z,100.0
2023-04-01T01:45:17.747Z,100.0
2023-04-01T01:50:17.747Z,100.0
2023-04-01T01:55:17.770Z,100.0
2023-04-01T02:00:17.759Z,100.0
2023-04-01T02:05:17.811Z,100.0
2023-04-01T02:10:17.763Z,100.0
2023-04-01T02:15:17.761Z,100.0
2023-04-01T02:16:25.434Z,100.0
2023-04-01T02:20:17.766Z,100.0
2023-04-01T02:25:17.773Z,100.0
2023-04-01T02:30:17.772Z,100.0
2023-04-01T02:35:17.800Z,100.0
2023-04-01T02:40:17.790Z,100.0
2023-04-01T02:45:17.788Z,100.0
2023-04-01T02:50:17.789Z,100.0
2023-04-01T02:55:17.788Z,100.0
2023-04-01T03:00:17.805Z,100.0
2023-04-01T03:05:17.835Z,100.0
2023-04-01T03:10:17.801Z,100.0
2023-04-01T03:15:17.808Z,100.0
2023-04-01T03:20:17.803Z,100.0
2023-04-01T03:25:17.807Z,100.0
2023-04-01T03:30:17.916Z,100.0
2023-04-01T03:35:17.845Z,100.0
2023-04-01T03:40:17.818Z,100.0
2023-04-01T03:45:17.824Z,100.0
2023-04-01T03:50:17.822Z,100.0
2023-04-01T03:55:17.823Z,100.0
2023-04-01T04:00:17.828Z,100.0
2023-04-01T04:05:17.872Z,100.0
2023-04-01T04:10:17.840Z,100.0
2023-04-01T04:15:17.829Z,100.0
2023-04-01T04:20:17.840Z,100.0
2023-04-01T04:25:17.844Z,100.0
2023-04-01T04:30:17.852Z,100.0
2023-04-01T04:35:17.885Z,100.0
2023-04-01T04:40:17.843Z,100.0
2023-04-01T04:45:17.848Z,100.0
2023-04-01T04:50:17.889Z,100.0
2023-04-01T04:55:17.878Z,100.0
2023-04-01T05:00:17.858Z,100.0
2023-04-01T05:05:17.895Z,100.0
2023-04-01T05:10:17.867Z,100.0
2023-04-01T05:15:17.875Z,100.0
2023-04-01T05:20:17.874Z,100.0
2023-04-01T05:25:17.876Z,100.0
2023-04-01T05:30:17.879Z,100.0
2023-04-01T05:35:17.918Z,100.0
2023-04-01T05:40:17.880Z,100.0
2023-04-01T05:45:17.890Z,100.0
2023-04-01T05:50:17.890Z,100.0
2023-04-01T05:55:17.893Z,100.0
2023-04-01T06:00:17.908Z,100.0
2023-04-01T06:03:14.148Z,100.0
2023-04-01T06:05:17.945Z,100.0
2023-04-01T06:10:17.918Z,100.0
2023-04-01T06:15:17.897Z,100.0
2023-04-01T06:20:17.908Z,100.0
2023-04-01T06:25:17.907Z,100.0
2023-04-01T06:30:17.943Z,100.0
2023-04-01T06:35:17.960Z,100.0
2023-04-01T06:40:17.931Z,100.0
2023-04-01T06:45:17.919Z,100.0
2023-04-01T06:50:17.932Z,100.0
2023-04-01T06:55:17.931Z,100.0
2023-04-01T07:00:17.949Z,100.0
2023-04-01T07:03:15.182Z,100.0
2023-04-01T07:05:17.961Z,100.0
2023-04-01T07:10:17.940Z,100.0
2023-04-01T07:15:17.950Z,100.0
2023-04-01T07:20:17.942Z,100.0
2023-04-01T07:25:17.945Z,100.0
2023-04-01T07:30:17.946Z,100.0
2023-04-01T07:35:17.970Z,100.0
2023-04-01T07:40:18.026Z,100.0
2023-04-01T07:45:17.970Z,100.0
2023-04-01T07:50:17.968Z,100.0
2023-04-01T07:55:17.961Z,100.0
2023-04-01T08:00:17.962Z,100.0
2023-04-01T08:05:18.007Z,100.0
2023-04-01T08:10:18.021Z,100.0
2023-04-01T08:15:18.036Z,100.0
2023-04-01T08:20:17.984Z,100.0
2023-04-01T08:25:17.976Z,100.0
2023-04-01T08:30:17.984Z,100.0
2023-04-01T08:35:18.012Z,100.0
2023-04-01T08:40:17.983Z,100.0
2023-04-01T08:45:17.992Z,100.0
2023-04-01T08:50:18.000Z,100.0
2023-04-01T08:55:17.995Z,100.0
2023-04-01T09:00:18.010Z,100.0
2023-04-01T09:05:18.050Z,100.0
2023-04-01T09:10:18.006Z,99.7
2023-04-01T09:15:18.012Z,98.2
2023-04-01T09:20:18.016Z,92.8
2023-04-01T09:25:18.030Z,92.4
2023-04-01T09:30:18.031Z,92.9
2023-04-01T09:35:18.062Z,91.2
2023-04-01T09:40:18.039Z,91.8
2023-04-01T09:45:18.040Z,94.7
2023-04-01T09:50:18.077Z,97.0
2023-04-01T09:55:18.033Z,98.4
2023-04-01T10:00:18.095Z,100.0
2023-04-01T10:05:18.125Z,100.0
2023-04-01T10:10:18.087Z,100.0
2023-04-01T10:15:18.050Z,100.0
2023-04-01T10:20:18.069Z,100.0
2023-04-01T10:25:18.166Z,100.0
2023-04-01T10:30:18.050Z,100.0
2023-04-01T10:35:18.090Z,100.0
2023-04-01T10:40:18.057Z,100.0
2023-04-01T10:45:18.061Z,100.0
2023-04-01T10:50:18.067Z,100.0
2023-04-01T10:55:18.068Z,100.0
2023-04-01T11:00:18.066Z,100.0
2023-04-01T11:05:20.645Z,100.0
2023-04-01T11:10:18.081Z,100.0
2023-04-01T11:15:18.085Z,100.0
2023-04-01T11:20:18.086Z,100.0
2023-04-01T11:25:18.083Z,100.0
2023-04-01T11:30:18.087Z,100.0
2023-04-01T11:35:18.126Z,100.0
2023-04-01T11:40:18.106Z,100.0
2023-04-01T11:45:18.091Z,100.0
2023-04-01T11:50:18.108Z,100.0
2023-04-01T11:55:18.133Z,100.0
2023-04-01T12:00:18.106Z,100.0
2023-04-01T12:05:18.142Z,100.0
2023-04-01T12:10:18.109Z,100.0
2023-04-01T12:15:18.124Z,100.0
2023-04-01T12:20:18.120Z,100.0
2023-04-01T12:25:18.131Z,100.0
2023-04-01T12:30:18.121Z,100.0
2023-04-01T12:35:18.151Z,100.0
2023-04-01T12:40:18.127Z,100.0
2023-04-01T12:45:18.136Z,100.0
2023-04-01T12:50:18.140Z,100.0
2023-04-01T12:55:18.142Z,100.0
2023-04-01T13:00:18.151Z,100.0
2023-04-01T13:05:18.178Z,100.0
2023-04-01T13:10:18.149Z,100.0
2023-04-01T13:15:18.147Z,100.0
2023-04-01T13:20:18.158Z,100.0
2023-04-01T13:25:18.161Z,100.0
2023-04-01T13:30:18.166Z,100.0
2023-04-01T13:35:18.269Z,100.0
2023-04-01T13:40:18.222Z,100.0
2023-04-01T13:45:18.170Z,100.0
2023-04-01T13:50:18.170Z,100.0
2023-04-01T13:55:18.184Z,100.0
2023-04-01T14:00:18.220Z,100.0
2023-04-01T14:05:18.713Z,100.0
2023-04-01T14:10:18.182Z,100.0
2023-04-01T14:15:18.182Z,100.0
2023-04-01T14:20:18.184Z,100.0
2023-04-01T14:25:18.196Z,100.0
2023-04-01T14:30:18.216Z,100.0
2023-04-01T14:35:18.235Z,100.0
2023-04-01T14:40:18.222Z,100.0
2023-04-01T14:45:18.231Z,100.0
2023-04-01T14:50:18.254Z,100.0
2023-04-01T14:55:18.215Z,100.0
2023-04-01T15:00:18.228Z,100.0
2023-04-01T15:05:18.359Z,100.0
2023-04-01T15:10:18.236Z,100.0
2023-04-01T15:15:18.236Z,100.0
2023-04-01T15:20:20.637Z,100.0
2023-04-01T15:25:18.266Z,100.0
2023-04-01T15:30:18.257Z,100.0
2023-04-01T15:35:18.331Z,100.0
2023-04-01T15:40:18.254Z,100.0
2023-04-01T15:45:18.256Z,100.0
2023-04-01T15:50:18.262Z,100.0
2023-04-01T15:55:18.249Z,100.0
2023-04-01T16:00:18.267Z,100.0
2023-04-01T16:05:18.281Z,100.0
2023-04-01T16:10:18.255Z,100.0
2023-04-01T16:15:18.258Z,100.0
2023-04-01T16:20:18.257Z,100.0
2023-04-01T16:25:18.262Z,100.0
2023-04-01T16:30:18.265Z,100.0
2023-04-01T16:35:18.296Z,100.0
2023-04-01T16:40:18.280Z,100.0
2023-04-01T16:45:18.472Z,100.0
2023-04-01T16:50:18.287Z,100.0
2023-04-01T16:55:18.290Z,100.0
2023-04-01T17:00:18.291Z,100.0
2023-04-01T17:05:18.325Z,100.0
2023-04-01T17:10:18.287Z,100.0
2023-04-01T17:15:18.295Z,100.0
2023-04-01T17:20:18.304Z,100.0
2023-04-01T17:25:18.304Z,100.0
2023-04-01T17:30:18.302Z,100.0
2023-04-01T17:35:18.346Z,100.0
2023-04-01T17:40:18.317Z,100.0
2023-04-01T17:45:18.326Z,100.0
2023-04-01T17:50:18.315Z,100.0
2023-04-01T17:55:18.316Z,100.0
2023-04-01T18:00:18.332Z,100.0
2023-04-01T18:05:18.352Z,100.0
2023-04-01T18:10:18.338Z,100.0
2023-04-01T18:15:18.330Z,100.0
2023-04-01T18:20:18.330Z,100.0
2023-04-01T18:25:18.339Z,100.0
2023-04-01T18:30:18.363Z,100.0
2023-04-01T18:35:18.372Z,100.0
2023-04-01T18:40:18.348Z,100.0
2023-04-01T18:45:18.375Z,100.0
2023-04-01T18:50:18.371Z,100.0
2023-04-01T18:55:18.356Z,100.0
2023-04-01T19:00:18.354Z,100.0
2023-04-01T19:05:18.406Z,100.0
2023-04-01T19:10:18.359Z,100.0
2023-04-01T19:15:18.365Z,100.0
2023-04-01T19:20:18.362Z,100.0
2023-04-01T19:25:18.362Z,100.0
2023-04-01T19:30:18.393Z,100.0
2023-04-01T19:35:18.406Z,100.0
2023-04-01T19:40:18.396Z,100.0
2023-04-01T19:45:18.387Z,100.0
2023-04-01T19:50:18.380Z,100.0
2023-04-01T19:55:18.393Z,100.0
2023-04-01T20:00:18.427Z,100.0
2023-04-01T20:05:18.429Z,100.0
2023-04-01T20:10:18.399Z,100.0
2023-04-01T20:15:18.394Z,100.0
2023-04-01T20:20:18.402Z,100.0
2023-04-01T20:25:18.425Z,100.0
2023-04-01T20:30:18.405Z,100.0
2023-04-01T20:35:18.446Z,100.0
2023-04-01T20:40:18.412Z,100.0
2023-04-01T20:45:18.416Z,100.0
2023-04-01T20:50:18.418Z,100.0
2023-04-01T20:55:18.429Z,100.0
2023-04-01T21:00:18.437Z,100.0
2023-04-01T21:05:18.460Z,100.0
2023-04-01T21:10:18.430Z,100.0
2023-04-01T21:15:18.436Z,100.0
2023-04-01T21:20:18.436Z,100.0
2023-04-01T21:25:18.448Z,100.0
2023-04-01T21:30:18.436Z,100.0
2023-04-01T21:35:18.467Z,100.0
2023-04-01T21:40:18.466Z,100.0
2023-04-01T21:45:18.466Z,100.0
2023-04-01T21:50:18.468Z,100.0
2023-04-01T21:55:18.452Z,100.0
2023-04-01T22:00:18.479Z,100.0
2023-04-01T22:05:18.501Z,100.0
2023-04-01T22:10:18.468Z,100.0
2023-04-01T22:15:18.516Z,100.0
2023-04-01T22:20:18.474Z,100.0
2023-04-01T22:25:18.476Z,100.0
2023-04-01T22:30:18.481Z,100.0
2023-04-01T22:35:18.493Z,100.0
2023-04-01T22:40:18.474Z,100.0
2023-04-01T22:45:18.479Z,100.0
2023-04-01T22:50:18.486Z,100.0
2023-04-01T22:55:18.514Z,100.0
2023-04-01T23:00:18.503Z,100.0
2023-04-01T23:05:18.532Z,100.0
2023-04-01T23:10:18.504Z,100.0
2023-04-01T23:15:18.504Z,100.0
2023-04-01T23:20:18.505Z,100.0
2023-04-01T23:25:18.504Z,100.0
2023-04-01T23:30:18.513Z,100.0
2023-04-01T23:35:18.533Z,100.0
2023-04-01T23:40:18.512Z,100.0
2023-04-01T23:45:18.524Z,100.0
2023-04-01T23:50:18.513Z,100.0
2023-04-01T23:55:18.533Z,100.0
